createdAt,value
2019-02-15T00:00:58.570Z,15.83
2019-02-15T00:03:26.886Z,16.60
2019-02-15T00:05:55.303Z,16.30
2019-02-15T00:08:23.558Z,16.07
2019-02-15T00:10:52.091Z,15.83
2019-02-15T00:13:20.336Z,15.27
2019-02-15T00:15:48.580Z,17.13
2019-02-15T00:18:18.502Z,17.50
2019-02-15T00:20:48.652Z,17.10
2019-02-15T00:23:16.994Z,15.23
2019-02-15T00:25:45.269Z,15.73
2019-02-15T00:28:13.551Z,15.80
2019-02-15T00:30:42.102Z,15.73
2019-02-15T00:33:10.369Z,16.00
2019-02-15T00:35:38.654Z,16.27
2019-02-15T00:38:07.196Z,16.33
2019-02-15T00:40:35.542Z,16.13
2019-02-15T00:43:03.896Z,15.83
2019-02-15T00:45:33.828Z,15.70
2019-02-15T00:48:09.557Z,16.53
2019-02-15T00:50:39.432Z,15.70
2019-02-15T00:53:21.435Z,15.50
2019-02-15T00:55:54.314Z,15.97
2019-02-15T00:58:33.457Z,15.30
2019-02-15T01:01:21.735Z,14.97
2019-02-15T01:03:51.951Z,15.17
2019-02-15T01:06:31.146Z,16.13
2019-02-15T01:09:10.551Z,15.97
2019-02-15T01:11:46.336Z,16.57
2019-02-15T01:14:14.577Z,16.40
2019-02-15T01:16:43.115Z,16.40
2019-02-15T01:19:11.627Z,16.83
2019-02-15T01:21:40.074Z,16.43
2019-02-15T01:24:08.339Z,16.57
2019-02-15T01:26:41.071Z,16.50
2019-02-15T01:29:27.317Z,16.67
2019-02-15T01:32:03.266Z,16.37
2019-02-15T01:34:39.234Z,15.97
2019-02-15T01:37:24.072Z,15.40
2019-02-15T01:39:54.217Z,15.67
2019-02-15T01:42:26.588Z,16.47
2019-02-15T01:45:02.759Z,15.63
2019-02-15T01:47:31.109Z,16.93
2019-02-15T01:49:59.614Z,15.90
2019-02-15T01:52:27.902Z,16.53
2019-02-15T01:54:56.157Z,15.97
2019-02-15T01:57:43.959Z,15.30
2019-02-15T02:00:13.863Z,15.43
2019-02-15T02:02:42.129Z,16.03
2019-02-15T02:05:10.364Z,16.70
2019-02-15T02:07:38.877Z,17.33
2019-02-15T02:10:10.551Z,15.97
2019-02-15T02:12:38.888Z,15.67
2019-02-15T02:15:08.778Z,15.13
2019-02-15T02:17:37.141Z,14.53
2019-02-15T02:20:08.154Z,16.17
2019-02-15T02:22:36.686Z,15.67
2019-02-15T02:25:06.467Z,15.90
2019-02-15T02:27:34.756Z,15.87
2019-02-15T02:30:03.319Z,16.00
2019-02-15T02:32:31.640Z,15.67
2019-02-15T02:34:59.885Z,15.07
2019-02-15T02:37:28.450Z,16.43
2019-02-15T02:39:56.753Z,16.30
2019-02-15T02:42:25.002Z,15.67
2019-02-15T02:44:53.556Z,15.67
2019-02-15T02:47:21.811Z,16.43
2019-02-15T02:49:50.077Z,15.77
2019-02-15T02:52:18.318Z,15.63
2019-02-15T02:54:46.585Z,15.80
2019-02-15T02:57:14.838Z,16.77
2019-02-15T02:59:43.354Z,15.63
2019-02-15T03:02:11.603Z,15.63
2019-02-15T03:04:40.003Z,15.50
2019-02-15T03:07:08.322Z,16.53
2019-02-15T03:09:36.595Z,16.90
2019-02-15T03:12:04.844Z,16.77
2019-02-15T03:14:33.456Z,17.33
2019-02-15T03:17:01.713Z,16.10
2019-02-15T03:19:30.298Z,15.77
2019-02-15T03:21:58.811Z,16.37
2019-02-15T03:24:27.152Z,15.67
2019-02-15T03:26:55.684Z,15.03
2019-02-15T03:29:24.097Z,14.70
2019-02-15T03:31:52.355Z,15.67
2019-02-15T03:34:20.624Z,15.63
2019-02-15T03:36:53.304Z,15.93
2019-02-15T03:39:41.077Z,15.77
2019-02-15T03:42:11.019Z,15.13
2019-02-15T03:44:39.292Z,14.80
2019-02-15T03:47:07.640Z,16.67
2019-02-15T03:49:35.958Z,16.23
2019-02-15T03:52:04.203Z,15.73
2019-02-15T03:54:32.473Z,15.67
2019-02-15T03:57:00.746Z,15.50
2019-02-15T03:59:29.087Z,15.07
2019-02-15T04:01:57.505Z,15.27
2019-02-15T04:04:25.842Z,15.77
2019-02-15T04:06:54.385Z,17.40
2019-02-15T04:09:22.661Z,16.70
2019-02-15T04:11:51.195Z,16.17
2019-02-15T04:14:19.506Z,15.77
2019-02-15T04:16:47.758Z,16.47
2019-02-15T04:19:16.314Z,16.23
2019-02-15T04:21:44.627Z,16.30
2019-02-15T04:24:13.558Z,16.87
2019-02-15T04:26:41.942Z,16.97
2019-02-15T04:29:10.211Z,16.57
2019-02-15T04:31:38.699Z,15.53
2019-02-15T04:34:06.977Z,16.27
2019-02-15T04:36:35.236Z,15.33
2019-02-15T04:39:04.739Z,15.80
2019-02-15T04:41:33.458Z,14.87
2019-02-15T04:44:02.217Z,14.87
2019-02-15T04:46:30.455Z,15.13
2019-02-15T04:48:58.750Z,14.50
2019-02-15T04:51:27.007Z,13.80
2019-02-15T04:53:55.537Z,14.67
2019-02-15T04:56:23.842Z,15.20
2019-02-15T04:58:52.077Z,15.13
2019-02-15T05:01:20.624Z,16.47
2019-02-15T05:03:48.882Z,17.00
2019-02-15T05:06:17.300Z,18.07
2019-02-15T05:08:45.563Z,16.83
2019-02-15T05:11:13.932Z,17.87
2019-02-15T05:13:42.181Z,17.07
2019-02-15T05:16:10.537Z,17.17
2019-02-15T05:18:38.812Z,17.37
2019-02-15T05:21:07.145Z,16.83
2019-02-15T05:23:35.403Z,16.37
2019-02-15T05:26:03.963Z,16.93
2019-02-15T05:28:32.211Z,16.13
2019-02-15T05:31:00.540Z,15.60
2019-02-15T05:33:28.775Z,15.07
2019-02-15T05:35:57.328Z,14.87
2019-02-15T05:38:25.893Z,14.10
2019-02-15T05:40:54.272Z,12.80
2019-02-15T05:43:22.759Z,14.10
2019-02-15T05:45:51.073Z,14.13
2019-02-15T05:48:19.471Z,13.80
2019-02-15T05:50:48.016Z,14.40
2019-02-15T05:53:16.336Z,13.93
2019-02-15T05:55:44.879Z,14.03
2019-02-15T05:58:13.166Z,14.03
2019-02-15T06:00:41.450Z,14.53
2019-02-15T06:03:09.990Z,13.63
2019-02-15T06:05:38.298Z,14.47
2019-02-15T06:08:06.661Z,13.90
2019-02-15T06:10:35.261Z,14.07
2019-02-15T06:13:03.511Z,13.57
2019-02-15T06:15:31.783Z,14.30
2019-02-15T06:18:00.038Z,14.93
2019-02-15T06:20:28.605Z,15.17
2019-02-15T06:22:56.863Z,14.47
2019-02-15T06:25:25.408Z,14.93
2019-02-15T06:27:53.729Z,17.50
2019-02-15T06:30:22.262Z,16.63
2019-02-15T06:32:50.513Z,15.60
2019-02-15T06:35:18.787Z,14.60
2019-02-15T06:37:47.045Z,14.60
2019-02-15T06:40:15.308Z,14.37
2019-02-15T06:42:43.557Z,14.57
2019-02-15T06:45:12.089Z,13.73
2019-02-15T06:47:40.345Z,14.30
2019-02-15T06:50:08.896Z,13.43
2019-02-15T06:52:37.407Z,14.73
2019-02-15T06:55:06.714Z,16.03
2019-02-15T06:57:34.972Z,15.93
2019-02-15T07:00:21.562Z,15.47
2019-02-15T07:02:54.519Z,18.50
2019-02-15T07:05:28.660Z,24.80
2019-02-15T07:07:56.915Z,21.70
2019-02-15T07:10:25.200Z,20.47
2019-02-15T07:12:53.809Z,21.30
2019-02-15T07:15:22.091Z,21.10
2019-02-15T07:17:50.350Z,21.13
2019-02-15T07:20:18.671Z,19.47
2019-02-15T07:22:46.992Z,20.73
2019-02-15T07:25:15.328Z,20.50
2019-02-15T07:27:43.711Z,19.43
2019-02-15T07:30:15.394Z,17.47
2019-02-15T07:32:43.405Z,17.07
2019-02-15T07:35:11.641Z,15.60
2019-02-15T07:37:40.530Z,15.30
2019-02-15T07:40:12.204Z,14.47
2019-02-15T07:42:40.769Z,12.93
2019-02-15T07:45:10.792Z,13.77
2019-02-15T07:47:39.379Z,14.10
2019-02-15T07:50:10.445Z,14.17
2019-02-15T07:52:38.723Z,14.83
2019-02-15T07:55:07.815Z,14.60
2019-02-15T07:57:36.356Z,14.17
2019-02-15T08:00:09.585Z,13.33
2019-02-15T08:02:37.876Z,15.47
2019-02-15T08:05:08.051Z,15.47
2019-02-15T08:07:36.629Z,15.97
2019-02-15T08:10:07.541Z,15.90
2019-02-15T08:12:35.829Z,15.57
2019-02-15T08:15:05.775Z,15.53
2019-02-15T08:17:34.124Z,15.27
2019-02-15T08:20:02.396Z,15.67
2019-02-15T08:22:30.726Z,15.77
2019-02-15T08:24:58.982Z,15.63
2019-02-15T08:27:27.246Z,18.13
2019-02-15T08:29:55.517Z,17.17
2019-02-15T08:32:24.119Z,16.83
2019-02-15T08:34:52.709Z,17.20
2019-02-15T08:37:20.982Z,15.73
2019-02-15T08:39:49.242Z,14.30
2019-02-15T08:42:17.519Z,14.47
2019-02-15T08:44:45.767Z,14.90
2019-02-15T08:47:14.057Z,14.37
2019-02-15T08:49:42.317Z,14.20
2019-02-15T08:52:10.926Z,15.17
2019-02-15T08:54:39.169Z,14.83
2019-02-15T08:57:07.906Z,14.40
2019-02-15T08:59:36.150Z,14.60
2019-02-15T09:02:06.059Z,13.60
2019-02-15T09:04:34.450Z,14.10
2019-02-15T09:07:02.725Z,14.43
2019-02-15T09:09:31.228Z,14.90
2019-02-15T09:11:59.916Z,14.13
2019-02-15T09:14:28.220Z,13.70
2019-02-15T09:16:56.496Z,14.90
2019-02-15T09:19:24.753Z,14.77
2019-02-15T09:21:53.022Z,13.50
2019-02-15T09:24:21.280Z,13.07
2019-02-15T09:26:49.632Z,13.67
2019-02-15T09:29:17.864Z,13.23
2019-02-15T09:31:46.137Z,11.97
2019-02-15T09:34:14.383Z,12.33
2019-02-15T09:36:42.665Z,12.63
2019-02-15T09:39:10.901Z,12.33
2019-02-15T09:41:39.199Z,13.27
2019-02-15T09:44:07.713Z,11.90
2019-02-15T09:46:35.962Z,12.30
2019-02-15T09:49:04.559Z,12.87
2019-02-15T09:51:32.803Z,13.07
2019-02-15T09:54:01.087Z,11.93
2019-02-15T09:56:29.697Z,11.60
2019-02-15T09:58:58.297Z,10.90
2019-02-15T10:01:26.563Z,11.40
2019-02-15T10:03:55.303Z,9.80
2019-02-15T10:06:23.622Z,9.33
2019-02-15T10:08:51.898Z,9.47
2019-02-15T10:11:20.169Z,9.83
2019-02-15T10:13:48.467Z,10.90
2019-02-15T10:16:16.724Z,10.83
2019-02-15T10:18:44.974Z,9.53
2019-02-15T10:21:15.401Z,9.80
2019-02-15T10:23:43.674Z,10.20
2019-02-15T10:26:11.948Z,10.20
2019-02-15T10:28:40.188Z,10.50
2019-02-15T10:31:08.479Z,10.67
2019-02-15T10:33:36.997Z,11.20
2019-02-15T10:36:05.274Z,10.83
2019-02-15T10:38:33.857Z,11.07
2019-02-15T10:41:02.453Z,11.07
2019-02-15T10:43:30.689Z,10.50
2019-02-15T10:45:58.977Z,11.30
2019-02-15T10:48:27.231Z,11.53
2019-02-15T10:50:55.864Z,11.67
2019-02-15T10:53:24.105Z,10.97
2019-02-15T10:55:52.746Z,10.50
2019-02-15T10:58:21.293Z,12.67
2019-02-15T11:00:49.583Z,11.90
2019-02-15T11:03:17.818Z,12.60
2019-02-15T11:05:46.084Z,11.23
2019-02-15T11:08:14.620Z,11.57
2019-02-15T11:10:42.888Z,12.73
2019-02-15T11:13:11.138Z,11.50
2019-02-15T11:15:39.738Z,11.20
2019-02-15T11:18:07.981Z,11.57
2019-02-15T11:20:36.250Z,11.57
2019-02-15T11:23:04.778Z,11.67
2019-02-15T11:25:33.054Z,12.00
2019-02-15T11:28:01.297Z,11.67
2019-02-15T11:30:29.546Z,11.20
2019-02-15T11:32:57.832Z,10.70
2019-02-15T11:35:26.098Z,11.03
2019-02-15T11:37:54.363Z,11.07
2019-02-15T11:40:22.937Z,11.87
2019-02-15T11:42:51.597Z,12.13
2019-02-15T11:45:19.846Z,65.20
2019-02-15T11:47:48.133Z,22.63
2019-02-15T11:50:16.390Z,14.00
2019-02-15T11:52:44.672Z,11.20
2019-02-15T11:55:12.924Z,11.17
2019-02-15T11:57:41.462Z,11.60
2019-02-15T12:00:17.820Z,11.30
2019-02-15T12:02:46.015Z,12.10
2019-02-15T12:05:14.276Z,14.03
2019-02-15T12:07:42.859Z,18.60
2019-02-15T12:10:11.668Z,14.07
2019-02-15T12:12:39.949Z,14.33
2019-02-15T12:15:09.669Z,14.93
2019-02-15T12:17:37.967Z,12.67
2019-02-15T12:20:11.688Z,12.13
2019-02-15T12:22:39.988Z,12.93
2019-02-15T12:25:08.474Z,12.40
2019-02-15T12:27:37.267Z,12.57
2019-02-15T12:30:11.707Z,13.57
2019-02-15T12:32:39.983Z,15.00
2019-02-15T12:35:09.378Z,12.37
2019-02-15T12:37:37.719Z,12.20
2019-02-15T12:40:07.803Z,11.63
2019-02-15T12:42:36.090Z,11.90
2019-02-15T12:45:06.668Z,11.00
2019-02-15T12:47:34.969Z,11.00
2019-02-15T12:50:03.799Z,11.07
2019-02-15T12:52:32.101Z,9.83
2019-02-15T12:55:00.705Z,12.07
2019-02-15T12:57:29.021Z,10.83
2019-02-15T12:59:57.274Z,10.33
2019-02-15T13:02:25.558Z,10.90
2019-02-15T13:04:54.091Z,11.50
2019-02-15T13:07:22.385Z,11.03
2019-02-15T13:09:52.025Z,29.50
2019-02-15T13:12:20.439Z,60.60
2019-02-15T13:14:48.710Z,24.10
2019-02-15T13:17:24.503Z,11.57
2019-02-15T13:19:48.677Z,11.40
2019-02-15T13:22:16.959Z,11.33
2019-02-15T13:24:45.554Z,10.90
2019-02-15T13:27:13.806Z,11.03
2019-02-15T13:29:42.099Z,10.53
2019-02-15T13:32:10.346Z,9.87
2019-02-15T13:34:38.632Z,9.70
2019-02-15T13:37:06.875Z,9.73
2019-02-15T13:39:35.163Z,9.63
2019-02-15T13:42:03.418Z,8.83
2019-02-15T13:44:31.730Z,9.13
2019-02-15T13:47:00.151Z,8.67
2019-02-15T13:49:28.802Z,8.90
2019-02-15T13:51:57.048Z,9.10
2019-02-15T13:54:25.688Z,8.50
2019-02-15T13:56:53.933Z,7.30
2019-02-15T13:59:22.229Z,7.17
2019-02-15T14:01:50.481Z,7.00
2019-02-15T14:04:18.774Z,7.57
2019-02-15T14:06:50.282Z,6.97
2019-02-15T14:09:18.590Z,6.73
2019-02-15T14:11:47.040Z,7.20
2019-02-15T14:14:15.441Z,6.63
2019-02-15T14:16:43.759Z,7.20
2019-02-15T14:19:12.031Z,6.67
2019-02-15T14:21:44.302Z,6.70
2019-02-15T14:24:10.297Z,6.33
2019-02-15T14:26:38.570Z,6.43
2019-02-15T14:29:06.872Z,6.97
2019-02-15T14:31:35.134Z,8.37
2019-02-15T14:34:03.428Z,7.87
2019-02-15T14:36:31.672Z,7.63
2019-02-15T14:39:00.026Z,8.40
2019-02-15T14:41:28.275Z,7.97
2019-02-15T14:43:56.915Z,7.47
2019-02-15T14:46:25.160Z,7.30
2019-02-15T14:48:53.457Z,6.90
2019-02-15T14:51:21.715Z,7.20
2019-02-15T14:53:49.998Z,7.60
2019-02-15T14:56:18.249Z,7.37
2019-02-15T14:58:46.777Z,7.90
2019-02-15T15:01:15.035Z,7.93
2019-02-15T15:03:43.402Z,8.77
2019-02-15T15:06:12.029Z,9.00
2019-02-15T15:08:40.697Z,9.30
2019-02-15T15:11:08.961Z,8.63
2019-02-15T15:13:37.285Z,8.63
2019-02-15T15:16:05.539Z,8.50
2019-02-15T15:18:34.218Z,7.30
2019-02-15T15:21:02.473Z,8.77
2019-02-15T15:23:30.786Z,9.07
2019-02-15T15:25:59.042Z,16.80
2019-02-15T15:28:27.332Z,13.47
2019-02-15T15:30:55.905Z,12.67
2019-02-15T15:33:24.165Z,12.70
2019-02-15T15:35:52.471Z,8.77
2019-02-15T15:38:21.029Z,8.03
2019-02-15T15:40:49.333Z,7.97
2019-02-15T15:43:17.577Z,7.77
2019-02-15T15:45:45.850Z,7.97
2019-02-15T15:48:22.513Z,7.63
2019-02-15T15:50:44.209Z,7.47
2019-02-15T15:53:12.459Z,8.67
2019-02-15T15:55:40.747Z,8.13
2019-02-15T15:58:08.992Z,7.97
2019-02-15T16:00:39.351Z,7.60
2019-02-15T16:03:07.596Z,8.10
2019-02-15T16:05:35.898Z,8.13
2019-02-15T16:08:04.437Z,6.77
2019-02-15T16:10:32.782Z,8.13
2019-02-15T16:13:01.025Z,7.30
2019-02-15T16:15:29.315Z,8.60
2019-02-15T16:17:57.573Z,8.33
2019-02-15T16:20:25.853Z,7.53
2019-02-15T16:22:54.114Z,7.67
2019-02-15T16:25:22.420Z,7.83
2019-02-15T16:27:50.672Z,7.80
2019-02-15T16:30:18.962Z,7.70
2019-02-15T16:32:47.211Z,7.30
2019-02-15T16:35:15.530Z,7.33
2019-02-15T16:37:43.837Z,7.27
2019-02-15T16:40:13.800Z,7.67
2019-02-15T16:42:42.312Z,8.63
2019-02-15T16:45:14.947Z,7.80
2019-02-15T16:47:43.181Z,7.80
2019-02-15T16:50:11.759Z,8.57
2019-02-15T16:52:40.309Z,7.80
2019-02-15T16:55:12.711Z,8.50
2019-02-15T16:57:39.589Z,7.93
2019-02-15T17:00:12.803Z,8.77
2019-02-15T17:02:41.082Z,9.13
2019-02-15T17:05:09.386Z,8.77
2019-02-15T17:07:37.891Z,9.37
2019-02-15T17:10:10.104Z,10.20
2019-02-15T17:12:38.359Z,10.07
2019-02-15T17:15:14.508Z,10.53
2019-02-15T17:17:42.763Z,10.60
2019-02-15T17:20:11.586Z,11.43
2019-02-15T17:22:40.177Z,12.10
2019-02-15T17:25:11.501Z,11.20
2019-02-15T17:27:39.741Z,12.07
2019-02-15T17:30:10.964Z,11.30
2019-02-15T17:32:39.451Z,11.40
2019-02-15T17:35:09.944Z,11.13
2019-02-15T17:37:38.206Z,10.90
2019-02-15T17:40:09.634Z,11.53
2019-02-15T17:42:37.881Z,10.17
2019-02-15T17:45:08.277Z,13.33
2019-02-15T17:47:36.853Z,12.47
2019-02-15T17:50:07.140Z,13.00
2019-02-15T17:52:35.446Z,14.43
2019-02-15T17:55:04.142Z,14.83
2019-02-15T17:57:32.454Z,13.37
2019-02-15T18:00:00.708Z,14.73
2019-02-15T18:02:29.007Z,14.53
2019-02-15T18:04:57.258Z,13.43
2019-02-15T18:07:25.557Z,15.03
2019-02-15T18:09:54.119Z,14.60
2019-02-15T18:12:22.424Z,12.93
2019-02-15T18:14:50.700Z,13.53
2019-02-15T18:17:19.393Z,12.57
2019-02-15T18:19:47.736Z,13.53
2019-02-15T18:22:16.036Z,12.30
2019-02-15T18:24:44.325Z,12.07
2019-02-15T18:27:12.962Z,13.00
2019-02-15T18:29:41.196Z,11.90
2019-02-15T18:32:09.823Z,11.87
2019-02-15T18:34:38.077Z,12.00
2019-02-15T18:37:06.451Z,12.30
2019-02-15T18:39:34.769Z,13.50
2019-02-15T18:42:03.110Z,13.37
2019-02-15T18:44:31.417Z,12.63
2019-02-15T18:46:59.722Z,12.37
2019-02-15T18:49:28.268Z,14.97
2019-02-15T18:51:56.573Z,13.60
2019-02-15T18:54:25.130Z,13.77
2019-02-15T18:56:53.425Z,12.63
2019-02-15T18:59:21.678Z,13.53
2019-02-15T19:01:50.258Z,12.30
2019-02-15T19:04:18.504Z,12.87
2019-02-15T19:06:46.852Z,13.87
2019-02-15T19:09:15.117Z,13.10
2019-02-15T19:11:43.434Z,15.03
2019-02-15T19:14:11.746Z,15.17
2019-02-15T19:16:40.321Z,15.17
2019-02-15T19:19:08.576Z,14.77
2019-02-15T19:21:36.888Z,14.43
2019-02-15T19:24:05.159Z,13.03
2019-02-15T19:26:33.750Z,13.70
2019-02-15T19:29:02.001Z,13.07
2019-02-15T19:31:30.301Z,12.67
2019-02-15T19:33:58.548Z,12.57
2019-02-15T19:36:27.285Z,13.17
2019-02-15T19:38:55.555Z,13.47
2019-02-15T19:41:24.114Z,13.80
2019-02-15T19:43:52.360Z,13.53
2019-02-15T19:46:21.693Z,12.53
2019-02-15T19:48:50.271Z,13.40
2019-02-15T19:51:18.579Z,13.20
2019-02-15T19:53:46.814Z,12.87
2019-02-15T19:56:15.110Z,13.03
2019-02-15T19:58:43.748Z,13.67
2019-02-15T20:01:12.695Z,13.63
2019-02-15T20:03:41.369Z,13.37
2019-02-15T20:06:09.950Z,14.03
2019-02-15T20:08:38.246Z,13.40
2019-02-15T20:11:06.566Z,13.10
2019-02-15T20:13:35.198Z,14.17
2019-02-15T20:16:03.507Z,13.40
2019-02-15T20:18:31.822Z,14.00
2019-02-15T20:21:00.066Z,16.10
2019-02-15T20:23:28.444Z,16.07
2019-02-15T20:25:56.696Z,14.90
2019-02-15T20:28:25.033Z,13.70
2019-02-15T20:30:53.629Z,12.37
2019-02-15T20:33:21.956Z,13.03
2019-02-15T20:35:51.232Z,13.27
2019-02-15T20:38:19.716Z,14.37
2019-02-15T20:40:48.281Z,14.00
2019-02-15T20:43:16.649Z,13.80
2019-02-15T20:45:44.899Z,13.80
2019-02-15T20:48:14.525Z,13.00
2019-02-15T20:50:42.882Z,13.03
2019-02-15T20:53:18.245Z,13.30
2019-02-15T20:55:46.501Z,13.57
2019-02-15T20:58:15.119Z,13.23
2019-02-15T21:00:43.458Z,13.37
2019-02-15T21:03:12.070Z,12.13
2019-02-15T21:05:40.659Z,12.93
2019-02-15T21:08:08.958Z,14.40
2019-02-15T21:10:37.505Z,15.17
2019-02-15T21:13:05.824Z,14.67
2019-02-15T21:15:34.079Z,14.37
2019-02-15T21:18:02.659Z,14.83
2019-02-15T21:20:31.221Z,15.10
2019-02-15T21:22:59.829Z,14.27
2019-02-15T21:25:28.070Z,14.90
2019-02-15T21:27:56.691Z,14.30
2019-02-15T21:30:24.948Z,14.97
2019-02-15T21:32:53.239Z,14.87
2019-02-15T21:35:21.484Z,15.80
2019-02-15T21:37:50.095Z,13.87
2019-02-15T21:40:19.468Z,14.47
2019-02-15T21:42:48.292Z,14.57
2019-02-15T21:45:16.739Z,14.97
2019-02-15T21:47:45.377Z,15.70
2019-02-15T21:50:17.776Z,15.10
2019-02-15T21:52:44.706Z,14.70
2019-02-15T21:55:16.974Z,14.27
2019-02-15T21:57:45.365Z,13.87
2019-02-15T22:00:24.402Z,13.97
2019-02-15T22:02:52.773Z,14.10
2019-02-15T22:05:21.105Z,12.97
2019-02-15T22:07:49.689Z,12.80
2019-02-15T22:10:17.935Z,14.10
2019-02-15T22:12:46.257Z,14.50
2019-02-15T22:15:16.209Z,13.47
2019-02-15T22:17:44.490Z,13.77
2019-02-15T22:20:16.401Z,13.43
2019-02-15T22:22:44.684Z,14.20
2019-02-15T22:25:13.022Z,14.70
2019-02-15T22:27:41.357Z,14.67
2019-02-15T22:30:17.832Z,13.53
2019-02-15T22:32:46.154Z,14.27
2019-02-15T22:35:14.441Z,14.47
2019-02-15T22:37:42.808Z,15.07
2019-02-15T22:40:34.871Z,17.30
2019-02-15T22:43:17.947Z,14.97
2019-02-15T22:45:46.553Z,15.33
2019-02-15T22:48:14.849Z,16.80
2019-02-15T22:50:43.187Z,14.90
2019-02-15T22:53:11.486Z,14.20
2019-02-15T22:55:39.733Z,14.13
2019-02-15T22:58:08.131Z,14.07
2019-02-15T23:01:00.784Z,13.77
2019-02-15T23:03:29.466Z,13.87
2019-02-15T23:05:58.250Z,13.27
2019-02-15T23:08:26.527Z,13.57
2019-02-15T23:10:54.782Z,14.70
2019-02-15T23:13:23.389Z,13.80
2019-02-15T23:15:51.873Z,14.37
2019-02-15T23:18:20.393Z,13.00
2019-02-15T23:20:48.642Z,13.77
2019-02-15T23:23:17.220Z,13.43
2019-02-15T23:25:45.474Z,13.30
2019-02-15T23:28:14.070Z,12.97
2019-02-15T23:30:42.317Z,12.67
2019-02-15T23:33:10.589Z,12.67
2019-02-15T23:35:39.114Z,13.30
2019-02-15T23:38:07.686Z,12.80
2019-02-15T23:40:35.937Z,12.37
2019-02-15T23:43:04.550Z,12.67
2019-02-15T23:45:33.139Z,12.53
2019-02-15T23:48:01.410Z,12.50
2019-02-15T23:50:29.998Z,12.50
2019-02-15T23:52:58.337Z,13.27
2019-02-15T23:55:26.853Z,12.13
2019-02-15T23:57:55.139Z,11.60
